Terminal Aerodrome Forecast
Issued by NWS

Home | Current Version | Previous Version | Graphics & Text | Print | Product List | Glossary On
Versions: 1 2 3 4 5 6 7 8 9 10 11 12 13 14 15 16 17 18 19 20 21 22 23 24 25
000
FTUS41 KCLE 272207 AAB
TAFFDY
TAF AMD
KFDY 272207Z 2722/2818 33028G40KT 3SM -SHRA BR OVC008
     FM280200 33018G30KT 5SM -SHRA BR OVC012
     FM281100 30012KT P6SM BKN006 OVC015
     FM281400 32012G20KT P6SM OVC015=

USA.gov is the U.S. government's official web portal to all federal, state and local government web resources and services.